sensor_id;sensor_type;location;lat;lon;timestamp;P1;durP1;ratioP1;P2;durP2;ratioP2
36653;SDS011;22650;49.350;20.898;2023-09-30T00:00:08;849.35;;;760.95;;
36653;SDS011;22650;49.350;20.898;2023-09-30T00:02:43;810.47;;;732.80;;
36653;SDS011;22650;49.350;20.898;2023-09-30T00:05:17;1050.40;;;854.22;;
36653;SDS011;22650;49.350;20.898;2023-09-30T00:07:52;1109.70;;;892.38;;
36653;SDS011;22650;49.350;20.898;2023-09-30T00:10:26;1208.00;;;919.33;;
36653;SDS011;22650;49.350;20.898;2023-09-30T00:13:02;1026.75;;;856.15;;
36653;SDS011;22650;49.350;20.898;2023-09-30T00:15:38;891.40;;;790.40;;
36653;SDS011;22650;49.350;20.898;2023-09-30T00:18:12;1115.47;;;893.85;;
36653;SDS011;22650;49.350;20.898;2023-09-30T00:20:46;1006.72;;;863.75;;
36653;SDS011;22650;49.350;20.898;2023-09-30T00:23:21;1081.72;;;892.25;;
36653;SDS011;22650;49.350;20.898;2023-09-30T00:25:55;832.47;;;753.40;;
36653;SDS011;22650;49.350;20.898;2023-09-30T00:28:29;791.58;;;719.33;;
36653;SDS011;22650;49.350;20.898;2023-09-30T00:31:06;896.97;;;804.72;;
36653;SDS011;22650;49.350;20.898;2023-09-30T00:33:42;973.70;;;853.05;;
36653;SDS011;22650;49.350;20.898;2023-09-30T00:36:15;943.65;;;826.42;;
36653;SDS011;22650;49.350;20.898;2023-09-30T00:38:50;983.75;;;852.65;;
36653;SDS011;22650;49.350;20.898;2023-09-30T00:41:24;1187.80;;;917.05;;
36653;SDS011;22650;49.350;20.898;2023-09-30T00:43:58;1359.38;;;967.80;;
36653;SDS011;22650;49.350;20.898;2023-09-30T00:46:32;1181.68;;;922.50;;
36653;SDS011;22650;49.350;20.898;2023-09-30T00:49:08;959.65;;;821.28;;
36653;SDS011;22650;49.350;20.898;2023-09-30T00:51:42;828.47;;;751.53;;
36653;SDS011;22650;49.350;20.898;2023-09-30T00:54:21;1114.47;;;892.55;;
36653;SDS011;22650;49.350;20.898;2023-09-30T00:56:56;956.33;;;835.22;;
36653;SDS011;22650;49.350;20.898;2023-09-30T00:59:32;839.65;;;753.50;;
36653;SDS011;22650;49.350;20.898;2023-09-30T01:02:06;942.08;;;841.55;;
36653;SDS011;22650;49.350;20.898;2023-09-30T01:04:39;1162.82;;;905.22;;
36653;SDS011;22650;49.350;20.898;2023-09-30T01:07:13;967.15;;;847.33;;
36653;SDS011;22650;49.350;20.898;2023-09-30T01:09:48;780.25;;;707.15;;
36653;SDS011;22650;49.350;20.898;2023-09-30T01:12:23;845.60;;;764.22;;
36653;SDS011;22650;49.350;20.898;2023-09-30T01:14:57;806.63;;;729.35;;
36653;SDS011;22650;49.350;20.898;2023-09-30T01:17:31;858.13;;;771.63;;
36653;SDS011;22650;49.350;20.898;2023-09-30T01:20:05;873.50;;;782.83;;
36653;SDS011;22650;49.350;20.898;2023-09-30T01:22:42;882.97;;;791.75;;
36653;SDS011;22650;49.350;20.898;2023-09-30T01:25:16;991.05;;;833.35;;
36653;SDS011;22650;49.350;20.898;2023-09-30T01:27:50;1080.93;;;891.10;;
36653;SDS011;22650;49.350;20.898;2023-09-30T01:30:24;997.03;;;848.38;;
36653;SDS011;22650;49.350;20.898;2023-09-30T01:32:58;1034.35;;;876.17;;
36653;SDS011;22650;49.350;20.898;2023-09-30T01:35:31;962.42;;;855.88;;
36653;SDS011;22650;49.350;20.898;2023-09-30T01:38:06;905.97;;;809.10;;
36653;SDS011;22650;49.350;20.898;2023-09-30T01:40:40;957.28;;;835.30;;
36653;SDS011;22650;49.350;20.898;2023-09-30T01:43:15;896.50;;;800.33;;
36653;SDS011;22650;49.350;20.898;2023-09-30T01:45:49;1008.65;;;872.80;;
36653;SDS011;22650;49.350;20.898;2023-09-30T01:48:22;884.63;;;792.42;;
36653;SDS011;22650;49.350;20.898;2023-09-30T01:50:56;898.47;;;798.58;;
36653;SDS011;22650;49.350;20.898;2023-09-30T01:53:31;954.95;;;846.10;;
36653;SDS011;22650;49.350;20.898;2023-09-30T01:56:05;1025.00;;;863.38;;
36653;SDS011;22650;49.350;20.898;2023-09-30T01:58:39;918.35;;;822.55;;
36653;SDS011;22650;49.350;20.898;2023-09-30T02:01:13;820.67;;;740.92;;
36653;SDS011;22650;49.350;20.898;2023-09-30T02:03:47;802.90;;;727.03;;
36653;SDS011;22650;49.350;20.898;2023-09-30T02:06:21;836.08;;;754.38;;
36653;SDS011;22650;49.350;20.898;2023-09-30T02:08:56;764.63;;;696.92;;
36653;SDS011;22650;49.350;20.898;2023-09-30T02:11:30;726.42;;;665.63;;
36653;SDS011;22650;49.350;20.898;2023-09-30T02:14:03;786.63;;;712.78;;
36653;SDS011;22650;49.350;20.898;2023-09-30T02:16:38;693.78;;;637.45;;
36653;SDS011;22650;49.350;20.898;2023-09-30T02:19:12;670.03;;;612.10;;
36653;SDS011;22650;49.350;20.898;2023-09-30T02:21:46;733.92;;;670.30;;
36653;SDS011;22650;49.350;20.898;2023-09-30T02:24:22;734.72;;;671.00;;
36653;SDS011;22650;49.350;20.898;2023-09-30T02:26:55;700.33;;;639.70;;
36653;SDS011;22650;49.350;20.898;2023-09-30T02:29:29;772.88;;;705.00;;
36653;SDS011;22650;49.350;20.898;2023-09-30T02:32:03;676.67;;;621.25;;
36653;SDS011;22650;49.350;20.898;2023-09-30T02:34:38;568.72;;;525.75;;
36653;SDS011;22650;49.350;20.898;2023-09-30T02:37:11;554.25;;;512.03;;
36653;SDS011;22650;49.350;20.898;2023-09-30T02:39:46;548.85;;;508.38;;
36653;SDS011;22650;49.350;20.898;2023-09-30T02:42:20;570.50;;;524.17;;
36653;SDS011;22650;49.350;20.898;2023-09-30T02:44:55;521.60;;;480.35;;
36653;SDS011;22650;49.350;20.898;2023-09-30T02:47:29;489.33;;;454.05;;
36653;SDS011;22650;49.350;20.898;2023-09-30T02:50:04;497.52;;;461.20;;
36653;SDS011;22650;49.350;20.898;2023-09-30T02:52:40;479.65;;;444.52;;
36653;SDS011;22650;49.350;20.898;2023-09-30T02:55:15;584.67;;;542.13;;
36653;SDS011;22650;49.350;20.898;2023-09-30T02:57:48;558.55;;;517.55;;
36653;SDS011;22650;49.350;20.898;2023-09-30T03:00:22;599.92;;;549.05;;
36653;SDS011;22650;49.350;20.898;2023-09-30T03:02:59;590.05;;;543.75;;
36653;SDS011;22650;49.350;20.898;2023-09-30T03:05:34;706.92;;;648.47;;
36653;SDS011;22650;49.350;20.898;2023-09-30T03:08:08;668.97;;;615.45;;
36653;SDS011;22650;49.350;20.898;2023-09-30T03:10:43;682.78;;;624.35;;
36653;SDS011;22650;49.350;20.898;2023-09-30T03:13:17;726.25;;;663.38;;
36653;SDS011;22650;49.350;20.898;2023-09-30T03:15:52;796.05;;;725.38;;
36653;SDS011;22650;49.350;20.898;2023-09-30T03:18:28;674.95;;;618.05;;
36653;SDS011;22650;49.350;20.898;2023-09-30T03:21:03;793.85;;;718.72;;
36653;SDS011;22650;49.350;20.898;2023-09-30T03:23:47;862.40;;;772.28;;
36653;SDS011;22650;49.350;20.898;2023-09-30T03:26:22;833.13;;;753.30;;
36653;SDS011;22650;49.350;20.898;2023-09-30T03:28:55;827.08;;;749.53;;
36653;SDS011;22650;49.350;20.898;2023-09-30T03:31:29;884.67;;;794.47;;
36653;SDS011;22650;49.350;20.898;2023-09-30T03:34:03;855.58;;;770.95;;
36653;SDS011;22650;49.350;20.898;2023-09-30T03:36:36;887.40;;;797.47;;
36653;SDS011;22650;49.350;20.898;2023-09-30T03:39:13;811.03;;;736.63;;
36653;SDS011;22650;49.350;20.898;2023-09-30T03:41:48;782.47;;;710.55;;
36653;SDS011;22650;49.350;20.898;2023-09-30T03:44:24;804.85;;;729.13;;
36653;SDS011;22650;49.350;20.898;2023-09-30T03:46:57;866.40;;;780.65;;
36653;SDS011;22650;49.350;20.898;2023-09-30T03:49:32;852.47;;;770.72;;
36653;SDS011;22650;49.350;20.898;2023-09-30T03:52:06;870.13;;;782.03;;
36653;SDS011;22650;49.350;20.898;2023-09-30T03:54:40;858.40;;;775.28;;
36653;SDS011;22650;49.350;20.898;2023-09-30T03:57:16;833.65;;;755.45;;
36653;SDS011;22650;49.350;20.898;2023-09-30T03:59:49;720.92;;;661.95;;
36653;SDS011;22650;49.350;20.898;2023-09-30T04:02:25;758.63;;;691.53;;
36653;SDS011;22650;49.350;20.898;2023-09-30T04:04:59;724.38;;;662.50;;
36653;SDS011;22650;49.350;20.898;2023-09-30T04:07:37;787.90;;;717.83;;
36653;SDS011;22650;49.350;20.898;2023-09-30T04:10:10;786.03;;;711.05;;
36653;SDS011;22650;49.350;20.898;2023-09-30T04:12:45;842.75;;;764.13;;
36653;SDS011;22650;49.350;20.898;2023-09-30T04:15:19;834.20;;;754.38;;
36653;SDS011;22650;49.350;20.898;2023-09-30T04:17:53;792.13;;;720.65;;
36653;SDS011;22650;49.350;20.898;2023-09-30T04:20:27;763.47;;;698.78;;
36653;SDS011;22650;49.350;20.898;2023-09-30T04:23:01;693.38;;;635.42;;
36653;SDS011;22650;49.350;20.898;2023-09-30T04:25:35;658.60;;;603.80;;
36653;SDS011;22650;49.350;20.898;2023-09-30T04:28:10;775.95;;;707.45;;
36653;SDS011;22650;49.350;20.898;2023-09-30T04:30:44;729.53;;;669.28;;
36653;SDS011;22650;49.350;20.898;2023-09-30T04:33:17;707.85;;;650.35;;
36653;SDS011;22650;49.350;20.898;2023-09-30T04:35:52;697.97;;;640.45;;
36653;SDS011;22650;49.350;20.898;2023-09-30T04:38:25;756.85;;;690.55;;
36653;SDS011;22650;49.350;20.898;2023-09-30T04:40:59;765.55;;;700.17;;
36653;SDS011;22650;49.350;20.898;2023-09-30T04:43:34;723.72;;;663.47;;
36653;SDS011;22650;49.350;20.898;2023-09-30T04:46:09;668.70;;;608.97;;
36653;SDS011;22650;49.350;20.898;2023-09-30T04:48:45;642.65;;;589.13;;
36653;SDS011;22650;49.350;20.898;2023-09-30T04:51:20;750.25;;;684.28;;
36653;SDS011;22650;49.350;20.898;2023-09-30T04:53:54;724.88;;;665.75;;
36653;SDS011;22650;49.350;20.898;2023-09-30T04:56:29;668.55;;;612.05;;
36653;SDS011;22650;49.350;20.898;2023-09-30T04:59:04;719.30;;;659.42;;
36653;SDS011;22650;49.350;20.898;2023-09-30T05:01:38;767.30;;;698.53;;
36653;SDS011;22650;49.350;20.898;2023-09-30T05:04:11;693.10;;;635.90;;
36653;SDS011;22650;49.350;20.898;2023-09-30T05:06:45;691.53;;;635.85;;
36653;SDS011;22650;49.350;20.898;2023-09-30T05:09:19;824.28;;;743.15;;
36653;SDS011;22650;49.350;20.898;2023-09-30T05:11:53;854.58;;;773.70;;
36653;SDS011;22650;49.350;20.898;2023-09-30T05:14:28;857.03;;;774.22;;
36653;SDS011;22650;49.350;20.898;2023-09-30T05:17:03;762.33;;;696.17;;
36653;SDS011;22650;49.350;20.898;2023-09-30T05:19:37;750.03;;;686.58;;
36653;SDS011;22650;49.350;20.898;2023-09-30T05:22:11;849.03;;;768.67;;
36653;SDS011;22650;49.350;20.898;2023-09-30T05:24:44;804.88;;;733.70;;
36653;SDS011;22650;49.350;20.898;2023-09-30T05:27:18;746.88;;;684.28;;
36653;SDS011;22650;49.350;20.898;2023-09-30T05:29:53;870.58;;;783.55;;
36653;SDS011;22650;49.350;20.898;2023-09-30T05:32:27;939.72;;;837.55;;
36653;SDS011;22650;49.350;20.898;2023-09-30T05:35:01;869.35;;;784.38;;
36653;SDS011;22650;49.350;20.898;2023-09-30T05:37:36;876.97;;;789.45;;
36653;SDS011;22650;49.350;20.898;2023-09-30T05:40:10;894.67;;;802.58;;
36653;SDS011;22650;49.350;20.898;2023-09-30T05:42:52;861.15;;;779.15;;
36653;SDS011;22650;49.350;20.898;2023-09-30T05:45:30;852.28;;;769.90;;
36653;SDS011;22650;49.350;20.898;2023-09-30T05:48:06;914.22;;;822.47;;
36653;SDS011;22650;49.350;20.898;2023-09-30T05:50:39;850.40;;;769.17;;
36653;SDS011;22650;49.350;20.898;2023-09-30T05:53:14;862.97;;;776.58;;
36653;SDS011;22650;49.350;20.898;2023-09-30T05:55:48;881.20;;;794.13;;
36653;SDS011;22650;49.350;20.898;2023-09-30T05:58:22;829.85;;;751.75;;
36653;SDS011;22650;49.350;20.898;2023-09-30T06:00:57;996.13;;;863.15;;
36653;SDS011;22650;49.350;20.898;2023-09-30T06:03:32;939.67;;;836.80;;
36653;SDS011;22650;49.350;20.898;2023-09-30T06:06:11;840.50;;;760.53;;
36653;SDS011;22650;49.350;20.898;2023-09-30T06:08:45;840.38;;;758.90;;
36653;SDS011;22650;49.350;20.898;2023-09-30T06:11:19;789.58;;;719.15;;
36653;SDS011;22650;49.350;20.898;2023-09-30T06:13:56;787.03;;;715.42;;
36653;SDS011;22650;49.350;20.898;2023-09-30T06:16:32;889.28;;;802.10;;
36653;SDS011;22650;49.350;20.898;2023-09-30T06:19:06;805.45;;;731.90;;
36653;SDS011;22650;49.350;20.898;2023-09-30T06:21:41;870.22;;;786.83;;
36653;SDS011;22650;49.350;20.898;2023-09-30T06:24:14;777.05;;;710.83;;
36653;SDS011;22650;49.350;20.898;2023-09-30T06:26:48;809.92;;;733.60;;
36653;SDS011;22650;49.350;20.898;2023-09-30T06:29:35;777.17;;;707.10;;
36653;SDS011;22650;49.350;20.898;2023-09-30T06:32:13;851.33;;;766.92;;
36653;SDS011;22650;49.350;20.898;2023-09-30T06:34:47;913.28;;;821.80;;
36653;SDS011;22650;49.350;20.898;2023-09-30T06:37:20;854.28;;;767.50;;
36653;SDS011;22650;49.350;20.898;2023-09-30T06:39:54;1051.47;;;889.08;;
36653;SDS011;22650;49.350;20.898;2023-09-30T06:42:28;894.72;;;802.40;;
36653;SDS011;22650;49.350;20.898;2023-09-30T06:45:02;918.65;;;823.22;;
36653;SDS011;22650;49.350;20.898;2023-09-30T06:47:39;899.65;;;801.53;;
36653;SDS011;22650;49.350;20.898;2023-09-30T06:50:13;814.90;;;738.45;;
36653;SDS011;22650;49.350;20.898;2023-09-30T06:52:49;858.20;;;772.22;;
36653;SDS011;22650;49.350;20.898;2023-09-30T06:55:23;1041.40;;;879.72;;
36653;SDS011;22650;49.350;20.898;2023-09-30T06:57:58;778.45;;;711.38;;
36653;SDS011;22650;49.350;20.898;2023-09-30T07:00:33;929.83;;;834.42;;
36653;SDS011;22650;49.350;20.898;2023-09-30T07:03:08;844.95;;;764.17;;
36653;SDS011;22650;49.350;20.898;2023-09-30T07:05:42;818.60;;;743.88;;
36653;SDS011;22650;49.350;20.898;2023-09-30T07:08:16;911.03;;;815.90;;
36653;SDS011;22650;49.350;20.898;2023-09-30T07:10:50;702.97;;;641.55;;
36653;SDS011;22650;49.350;20.898;2023-09-30T07:13:24;795.88;;;724.05;;
36653;SDS011;22650;49.350;20.898;2023-09-30T07:15:58;821.45;;;744.83;;
36653;SDS011;22650;49.350;20.898;2023-09-30T07:18:33;801.75;;;727.08;;
36653;SDS011;22650;49.350;20.898;2023-09-30T07:21:06;764.10;;;696.60;;
36653;SDS011;22650;49.350;20.898;2023-09-30T07:23:40;723.03;;;661.00;;
36653;SDS011;22650;49.350;20.898;2023-09-30T07:26:14;678.60;;;623.65;;
36653;SDS011;22650;49.350;20.898;2023-09-30T07:28:48;654.53;;;601.85;;
36653;SDS011;22650;49.350;20.898;2023-09-30T07:31:21;854.63;;;767.88;;
36653;SDS011;22650;49.350;20.898;2023-09-30T07:33:57;742.60;;;677.30;;
36653;SDS011;22650;49.350;20.898;2023-09-30T07:36:30;633.58;;;582.67;;
36653;SDS011;22650;49.350;20.898;2023-09-30T07:39:04;826.90;;;748.75;;
36653;SDS011;22650;49.350;20.898;2023-09-30T07:41:38;864.90;;;778.60;;
36653;SDS011;22650;49.350;20.898;2023-09-30T07:44:11;603.63;;;555.58;;
36653;SDS011;22650;49.350;20.898;2023-09-30T07:46:45;593.95;;;546.75;;
36653;SDS011;22650;49.350;20.898;2023-09-30T07:49:20;607.97;;;560.53;;
36653;SDS011;22650;49.350;20.898;2023-09-30T07:51:55;494.50;;;456.42;;
36653;SDS011;22650;49.350;20.898;2023-09-30T07:54:29;425.15;;;391.45;;
36653;SDS011;22650;49.350;20.898;2023-09-30T07:57:03;504.13;;;465.23;;
36653;SDS011;22650;49.350;20.898;2023-09-30T07:59:36;531.25;;;490.85;;
36653;SDS011;22650;49.350;20.898;2023-09-30T08:02:10;466.80;;;429.77;;
36653;SDS011;22650;49.350;20.898;2023-09-30T08:04:45;569.75;;;523.80;;
36653;SDS011;22650;49.350;20.898;2023-09-30T08:07:19;611.78;;;561.92;;
36653;SDS011;22650;49.350;20.898;2023-09-30T08:09:53;543.33;;;500.92;;
36653;SDS011;22650;49.350;20.898;2023-09-30T08:12:26;453.25;;;417.48;;
36653;SDS011;22650;49.350;20.898;2023-09-30T08:15:01;666.47;;;609.40;;
36653;SDS011;22650;49.350;20.898;2023-09-30T08:17:37;539.97;;;496.13;;
36653;SDS011;22650;49.350;20.898;2023-09-30T08:20:12;391.55;;;360.08;;
36653;SDS011;22650;49.350;20.898;2023-09-30T08:22:46;341.52;;;316.38;;
36653;SDS011;22650;49.350;20.898;2023-09-30T08:25:19;337.58;;;312.45;;
36653;SDS011;22650;49.350;20.898;2023-09-30T08:27:53;265.83;;;248.30;;
36653;SDS011;22650;49.350;20.898;2023-09-30T08:30:27;224.30;;;210.48;;
36653;SDS011;22650;49.350;20.898;2023-09-30T08:33:01;277.08;;;258.35;;
36653;SDS011;22650;49.350;20.898;2023-09-30T08:35:39;252.20;;;235.52;;
36653;SDS011;22650;49.350;20.898;2023-09-30T08:38:14;164.45;;;154.75;;
36653;SDS011;22650;49.350;20.898;2023-09-30T08:40:49;274.85;;;255.75;;
36653;SDS011;22650;49.350;20.898;2023-09-30T08:43:24;150.27;;;140.35;;
36653;SDS011;22650;49.350;20.898;2023-09-30T08:46:02;117.32;;;110.20;;
36653;SDS011;22650;49.350;20.898;2023-09-30T08:48:38;159.10;;;149.52;;
36653;SDS011;22650;49.350;20.898;2023-09-30T08:51:13;117.88;;;110.30;;
36653;SDS011;22650;49.350;20.898;2023-09-30T08:53:46;80.30;;;74.25;;
36653;SDS011;22650;49.350;20.898;2023-09-30T08:56:22;60.83;;;57.17;;
36653;SDS011;22650;49.350;20.898;2023-09-30T08:58:58;62.30;;;57.63;;
36653;SDS011;22650;49.350;20.898;2023-09-30T09:01:33;84.82;;;78.38;;
36653;SDS011;22650;49.350;20.898;2023-09-30T09:04:07;95.05;;;88.00;;
36653;SDS011;22650;49.350;20.898;2023-09-30T09:06:42;112.90;;;105.57;;
36653;SDS011;22650;49.350;20.898;2023-09-30T09:09:17;106.82;;;98.32;;
36653;SDS011;22650;49.350;20.898;2023-09-30T09:11:56;154.95;;;144.63;;
36653;SDS011;22650;49.350;20.898;2023-09-30T09:14:40;77.70;;;71.47;;
36653;SDS011;22650;49.350;20.898;2023-09-30T09:17:15;108.85;;;100.00;;
36653;SDS011;22650;49.350;20.898;2023-09-30T09:19:56;90.10;;;83.22;;
36653;SDS011;22650;49.350;20.898;2023-09-30T09:22:41;79.93;;;72.57;;
36653;SDS011;22650;49.350;20.898;2023-09-30T09:25:15;78.88;;;72.22;;
36653;SDS011;22650;49.350;20.898;2023-09-30T09:27:49;91.03;;;83.93;;
36653;SDS011;22650;49.350;20.898;2023-09-30T09:30:24;103.00;;;95.20;;
36653;SDS011;22650;49.350;20.898;2023-09-30T09:32:59;106.13;;;96.80;;
36653;SDS011;22650;49.350;20.898;2023-09-30T09:35:34;78.90;;;71.93;;
36653;SDS011;22650;49.350;20.898;2023-09-30T09:38:09;88.70;;;79.78;;
36653;SDS011;22650;49.350;20.898;2023-09-30T09:40:43;115.95;;;106.43;;
36653;SDS011;22650;49.350;20.898;2023-09-30T09:43:16;111.07;;;102.53;;
36653;SDS011;22650;49.350;20.898;2023-09-30T09:45:50;119.57;;;109.55;;
36653;SDS011;22650;49.350;20.898;2023-09-30T09:48:24;82.68;;;74.05;;
36653;SDS011;22650;49.350;20.898;2023-09-30T09:50:58;137.93;;;124.55;;
36653;SDS011;22650;49.350;20.898;2023-09-30T09:53:35;121.38;;;108.20;;
36653;SDS011;22650;49.350;20.898;2023-09-30T09:56:11;123.22;;;107.50;;
36653;SDS011;22650;49.350;20.898;2023-09-30T09:58:45;115.75;;;101.82;;
36653;SDS011;22650;49.350;20.898;2023-09-30T10:01:21;116.90;;;105.38;;
36653;SDS011;22650;49.350;20.898;2023-09-30T10:03:55;133.73;;;121.03;;
36653;SDS011;22650;49.350;20.898;2023-09-30T10:06:30;140.70;;;120.53;;
36653;SDS011;22650;49.350;20.898;2023-09-30T10:09:11;144.25;;;129.65;;
36653;SDS011;22650;49.350;20.898;2023-09-30T10:11:47;141.60;;;125.43;;
36653;SDS011;22650;49.350;20.898;2023-09-30T10:14:29;151.07;;;136.00;;
36653;SDS011;22650;49.350;20.898;2023-09-30T10:17:04;133.07;;;120.30;;
36653;SDS011;22650;49.350;20.898;2023-09-30T10:22:39;168.40;;;146.07;;
36653;SDS011;22650;49.350;20.898;2023-09-30T10:31:15;152.63;;;131.50;;
36653;SDS011;22650;49.350;20.898;2023-09-30T10:36:53;165.80;;;149.63;;
36653;SDS011;22650;49.350;20.898;2023-09-30T10:42:48;142.40;;;128.80;;
36653;SDS011;22650;49.350;20.898;2023-09-30T10:48:36;129.15;;;115.82;;
36653;SDS011;22650;49.350;20.898;2023-09-30T10:51:15;161.20;;;146.73;;
36653;SDS011;22650;49.350;20.898;2023-09-30T10:53:53;144.80;;;132.13;;
36653;SDS011;22650;49.350;20.898;2023-09-30T10:56:32;142.60;;;128.65;;
36653;SDS011;22650;49.350;20.898;2023-09-30T10:59:07;187.20;;;168.73;;
36653;SDS011;22650;49.350;20.898;2023-09-30T11:01:41;139.93;;;127.63;;
36653;SDS011;22650;49.350;20.898;2023-09-30T11:04:15;186.13;;;170.80;;
36653;SDS011;22650;49.350;20.898;2023-09-30T11:06:50;198.38;;;181.38;;
36653;SDS011;22650;49.350;20.898;2023-09-30T11:09:24;190.70;;;174.55;;
36653;SDS011;22650;49.350;20.898;2023-09-30T11:11:57;189.63;;;173.30;;
36653;SDS011;22650;49.350;20.898;2023-09-30T11:14:32;180.60;;;165.75;;
36653;SDS011;22650;49.350;20.898;2023-09-30T11:17:06;187.73;;;173.45;;
36653;SDS011;22650;49.350;20.898;2023-09-30T11:19:45;214.77;;;195.55;;
36653;SDS011;22650;49.350;20.898;2023-09-30T11:22:20;198.48;;;183.23;;
36653;SDS011;22650;49.350;20.898;2023-09-30T11:24:54;204.90;;;186.75;;
36653;SDS011;22650;49.350;20.898;2023-09-30T11:27:28;182.15;;;166.88;;
36653;SDS011;22650;49.350;20.898;2023-09-30T11:30:05;206.13;;;188.35;;
36653;SDS011;22650;49.350;20.898;2023-09-30T11:32:40;177.18;;;162.57;;
36653;SDS011;22650;49.350;20.898;2023-09-30T11:35:21;181.85;;;166.75;;
36653;SDS011;22650;49.350;20.898;2023-09-30T11:37:55;226.35;;;208.23;;
36653;SDS011;22650;49.350;20.898;2023-09-30T11:40:29;326.45;;;301.65;;
36653;SDS011;22650;49.350;20.898;2023-09-30T11:43:09;312.23;;;287.25;;
36653;SDS011;22650;49.350;20.898;2023-09-30T11:45:45;314.45;;;290.33;;
36653;SDS011;22650;49.350;20.898;2023-09-30T11:48:19;319.67;;;294.65;;
36653;SDS011;22650;49.350;20.898;2023-09-30T11:50:53;260.95;;;240.82;;
36653;SDS011;22650;49.350;20.898;2023-09-30T11:53:28;308.38;;;284.08;;
36653;SDS011;22650;49.350;20.898;2023-09-30T11:56:03;249.15;;;229.55;;
36653;SDS011;22650;49.350;20.898;2023-09-30T11:58:39;332.73;;;308.23;;
36653;SDS011;22650;49.350;20.898;2023-09-30T12:01:14;349.15;;;323.85;;
36653;SDS011;22650;49.350;20.898;2023-09-30T12:03:48;292.08;;;268.90;;
36653;SDS011;22650;49.350;20.898;2023-09-30T12:06:26;258.42;;;238.18;;
36653;SDS011;22650;49.350;20.898;2023-09-30T12:08:59;332.88;;;307.52;;
36653;SDS011;22650;49.350;20.898;2023-09-30T12:11:34;224.82;;;207.48;;
36653;SDS011;22650;49.350;20.898;2023-09-30T12:14:08;245.10;;;225.88;;
36653;SDS011;22650;49.350;20.898;2023-09-30T12:16:43;326.20;;;301.48;;
36653;SDS011;22650;49.350;20.898;2023-09-30T12:19:17;328.90;;;303.13;;
36653;SDS011;22650;49.350;20.898;2023-09-30T12:21:51;330.55;;;305.73;;
36653;SDS011;22650;49.350;20.898;2023-09-30T12:24:25;474.75;;;438.10;;
36653;SDS011;22650;49.350;20.898;2023-09-30T12:26:59;370.80;;;344.85;;
36653;SDS011;22650;49.350;20.898;2023-09-30T12:29:33;363.65;;;335.15;;
36653;SDS011;22650;49.350;20.898;2023-09-30T12:32:12;439.67;;;408.65;;
36653;SDS011;22650;49.350;20.898;2023-09-30T12:34:46;380.58;;;353.60;;
36653;SDS011;22650;49.350;20.898;2023-09-30T12:37:19;402.33;;;372.92;;
36653;SDS011;22650;49.350;20.898;2023-09-30T12:39:53;399.00;;;369.25;;
36653;SDS011;22650;49.350;20.898;2023-09-30T12:42:27;483.73;;;446.13;;
36653;SDS011;22650;49.350;20.898;2023-09-30T12:45:01;473.90;;;437.63;;
36653;SDS011;22650;49.350;20.898;2023-09-30T12:47:38;469.75;;;433.60;;
36653;SDS011;22650;49.350;20.898;2023-09-30T12:50:12;499.27;;;460.30;;
36653;SDS011;22650;49.350;20.898;2023-09-30T12:52:46;420.95;;;390.98;;
36653;SDS011;22650;49.350;20.898;2023-09-30T12:55:19;374.75;;;347.58;;
36653;SDS011;22650;49.350;20.898;2023-09-30T12:57:53;361.33;;;336.40;;
36653;SDS011;22650;49.350;20.898;2023-09-30T13:00:26;383.55;;;357.55;;
36653;SDS011;22650;49.350;20.898;2023-09-30T13:03:06;422.05;;;391.38;;
36653;SDS011;22650;49.350;20.898;2023-09-30T13:05:40;397.45;;;369.80;;
36653;SDS011;22650;49.350;20.898;2023-09-30T13:08:15;386.85;;;359.63;;
36653;SDS011;22650;49.350;20.898;2023-09-30T13:10:48;375.85;;;349.52;;
36653;SDS011;22650;49.350;20.898;2023-09-30T13:13:24;414.30;;;383.67;;
36653;SDS011;22650;49.350;20.898;2023-09-30T13:15:57;373.50;;;345.20;;
36653;SDS011;22650;49.350;20.898;2023-09-30T13:18:33;490.17;;;451.27;;
36653;SDS011;22650;49.350;20.898;2023-09-30T13:21:07;520.10;;;479.30;;
36653;SDS011;22650;49.350;20.898;2023-09-30T13:23:44;495.05;;;456.48;;
36653;SDS011;22650;49.350;20.898;2023-09-30T13:26:17;489.35;;;451.88;;
36653;SDS011;22650;49.350;20.898;2023-09-30T13:28:51;565.03;;;518.92;;
36653;SDS011;22650;49.350;20.898;2023-09-30T13:31:24;508.85;;;467.88;;
36653;SDS011;22650;49.350;20.898;2023-09-30T13:33:59;471.52;;;436.20;;
36653;SDS011;22650;49.350;20.898;2023-09-30T13:36:35;537.60;;;495.25;;
36653;SDS011;22650;49.350;20.898;2023-09-30T13:39:09;541.88;;;500.15;;
36653;SDS011;22650;49.350;20.898;2023-09-30T13:41:45;592.38;;;544.45;;
36653;SDS011;22650;49.350;20.898;2023-09-30T13:44:19;531.15;;;488.05;;
36653;SDS011;22650;49.350;20.898;2023-09-30T13:46:52;511.60;;;472.35;;
36653;SDS011;22650;49.350;20.898;2023-09-30T13:49:28;543.28;;;500.20;;
36653;SDS011;22650;49.350;20.898;2023-09-30T13:52:02;477.42;;;439.42;;
36653;SDS011;22650;49.350;20.898;2023-09-30T13:54:37;479.58;;;442.15;;
36653;SDS011;22650;49.350;20.898;2023-09-30T13:57:11;515.95;;;475.35;;
36653;SDS011;22650;49.350;20.898;2023-09-30T13:59:45;529.35;;;486.20;;
36653;SDS011;22650;49.350;20.898;2023-09-30T14:02:20;697.28;;;638.10;;
36653;SDS011;22650;49.350;20.898;2023-09-30T14:04:56;570.38;;;523.42;;
36653;SDS011;22650;49.350;20.898;2023-09-30T14:07:29;580.47;;;533.05;;
36653;SDS011;22650;49.350;20.898;2023-09-30T14:10:03;546.33;;;502.90;;
36653;SDS011;22650;49.350;20.898;2023-09-30T14:12:38;577.55;;;529.63;;
36653;SDS011;22650;49.350;20.898;2023-09-30T14:15:12;622.83;;;570.63;;
36653;SDS011;22650;49.350;20.898;2023-09-30T14:17:47;584.80;;;536.70;;
36653;SDS011;22650;49.350;20.898;2023-09-30T14:20:22;638.80;;;584.42;;
36653;SDS011;22650;49.350;20.898;2023-09-30T14:22:56;791.58;;;718.22;;
36653;SDS011;22650;49.350;20.898;2023-09-30T14:25:29;616.55;;;564.00;;
36653;SDS011;22650;49.350;20.898;2023-09-30T14:28:03;757.08;;;692.10;;
36653;SDS011;22650;49.350;20.898;2023-09-30T14:30:37;673.35;;;615.13;;
36653;SDS011;22650;49.350;20.898;2023-09-30T14:33:11;769.08;;;699.00;;
36653;SDS011;22650;49.350;20.898;2023-09-30T14:35:46;831.78;;;753.22;;
36653;SDS011;22650;49.350;20.898;2023-09-30T14:38:21;493.65;;;455.20;;
36653;SDS011;22650;49.350;20.898;2023-09-30T14:40:55;691.03;;;632.72;;
36653;SDS011;22650;49.350;20.898;2023-09-30T14:43:28;855.83;;;771.03;;
36653;SDS011;22650;49.350;20.898;2023-09-30T14:46:02;610.95;;;558.67;;